sensor_id;sensor_type;location;lat;lon;timestamp;pressure;altitude;pressure_sealevel;temperature
24740;BMP280;45234;48.148;17.128;2022-08-03T00:02:15;100208.69;;;22.57
24740;BMP280;45234;48.148;17.128;2022-08-03T00:04:43;100210.03;;;22.55
24740;BMP280;45234;48.148;17.128;2022-08-03T00:07:10;100216.16;;;22.50
24740;BMP280;45234;48.148;17.128;2022-08-03T00:09:37;100205.06;;;22.43
24740;BMP280;45234;48.148;17.128;2022-08-03T00:12:05;100207.75;;;22.38
24740;BMP280;45234;48.148;17.128;2022-08-03T00:14:33;100204.56;;;22.36
24740;BMP280;45234;48.148;17.128;2022-08-03T00:17:01;100210.94;;;22.30
24740;BMP280;45234;48.148;17.128;2022-08-03T00:19:29;100202.22;;;22.24
24740;BMP280;45234;48.148;17.128;2022-08-03T00:21:57;100198.84;;;22.19
24740;BMP280;45234;48.148;17.128;2022-08-03T00:24:24;100208.91;;;22.12
24740;BMP280;45234;48.148;17.128;2022-08-03T00:26:51;100204.16;;;22.09
24740;BMP280;45234;48.148;17.128;2022-08-03T00:29:19;100202.03;;;22.05
24740;BMP280;45234;48.148;17.128;2022-08-03T00:31:46;100209.97;;;22.00
24740;BMP280;45234;48.148;17.128;2022-08-03T00:34:26;100199.47;;;21.95
24740;BMP280;45234;48.148;17.128;2022-08-03T00:37:14;100207.63;;;21.94
24740;BMP280;45234;48.148;17.128;2022-08-03T00:39:42;100197.84;;;21.94
24740;BMP280;45234;48.148;17.128;2022-08-03T00:42:11;100200.75;;;21.93
24740;BMP280;45234;48.148;17.128;2022-08-03T00:44:42;100200.75;;;21.93
24740;BMP280;45234;48.148;17.128;2022-08-03T00:47:11;100204.72;;;21.90
24740;BMP280;45234;48.148;17.128;2022-08-03T00:49:38;100199.94;;;21.92
24740;BMP280;45234;48.148;17.128;2022-08-03T00:52:11;100209.47;;;21.93
24740;BMP280;45234;48.148;17.128;2022-08-03T00:54:40;100208.41;;;21.94
24740;BMP280;45234;48.148;17.128;2022-08-03T00:57:07;100207.38;;;21.95
24740;BMP280;45234;48.148;17.128;2022-08-03T00:59:34;100211.31;;;21.93
24740;BMP280;45234;48.148;17.128;2022-08-03T01:02:02;100207.88;;;21.92
24740;BMP280;45234;48.148;17.128;2022-08-03T01:04:30;100207.09;;;21.92
24740;BMP280;45234;48.148;17.128;2022-08-03T01:07:00;100206.81;;;21.93
24740;BMP280;45234;48.148;17.128;2022-08-03T01:09:34;100207.63;;;21.94
24740;BMP280;45234;48.148;17.128;2022-08-03T01:12:07;100199.94;;;21.92
24740;BMP280;45234;48.148;17.128;2022-08-03T01:17:29;100207.38;;;21.90
24740;BMP280;45234;48.148;17.128;2022-08-03T01:19:59;100205.78;;;21.89
24740;BMP280;45234;48.148;17.128;2022-08-03T01:30:31;100204.78;;;21.75
24740;BMP280;45234;48.148;17.128;2022-08-03T01:33:01;100193.41;;;21.70
24740;BMP280;45234;48.148;17.128;2022-08-03T01:38:21;100201.09;;;21.66
24740;BMP280;45234;48.148;17.128;2022-08-03T01:40:52;100201.59;;;21.63
24740;BMP280;45234;48.148;17.128;2022-08-03T01:43:25;100193.69;;;21.58
24740;BMP280;45234;48.148;17.128;2022-08-03T01:46:17;100200.03;;;21.57
24740;BMP280;45234;48.148;17.128;2022-08-03T01:48:47;100195.03;;;21.55
24740;BMP280;45234;48.148;17.128;2022-08-03T01:51:15;100198.94;;;21.53
24740;BMP280;45234;48.148;17.128;2022-08-03T01:53:43;100200.03;;;21.52
24740;BMP280;45234;48.148;17.128;2022-08-03T01:56:11;100200.56;;;21.49
24740;BMP280;45234;48.148;17.128;2022-08-03T01:58:39;100197.41;;;21.47
24740;BMP280;45234;48.148;17.128;2022-08-03T02:01:07;100200.03;;;21.42
24740;BMP280;45234;48.148;17.128;2022-08-03T02:03:36;100202.16;;;21.40
24740;BMP280;45234;48.148;17.128;2022-08-03T02:06:24;100203.75;;;21.36
24740;BMP280;45234;48.148;17.128;2022-08-03T02:09:12;100203.50;;;21.32
24740;BMP280;45234;48.148;17.128;2022-08-03T02:11:40;100200.03;;;21.32
24740;BMP280;45234;48.148;17.128;2022-08-03T02:14:08;100195.28;;;21.29
24740;BMP280;45234;48.148;17.128;2022-08-03T02:16:36;100192.13;;;21.27
24740;BMP280;45234;48.148;17.128;2022-08-03T02:19:04;100197.66;;;21.25
24740;BMP280;45234;48.148;17.128;2022-08-03T02:21:35;100197.94;;;21.23
24740;BMP280;45234;48.148;17.128;2022-08-03T02:24:24;100202.13;;;21.24
24740;BMP280;45234;48.148;17.128;2022-08-03T02:26:52;100196.88;;;21.24
24740;BMP280;45234;48.148;17.128;2022-08-03T02:29:20;100192.13;;;21.21
24740;BMP280;45234;48.148;17.128;2022-08-03T02:32:16;100193.69;;;21.17
24740;BMP280;45234;48.148;17.128;2022-08-03T02:34:46;100193.16;;;21.10
24740;BMP280;45234;48.148;17.128;2022-08-03T02:37:17;100192.66;;;21.03
24740;BMP280;45234;48.148;17.128;2022-08-03T02:39:44;100188.66;;;20.96
24740;BMP280;45234;48.148;17.128;2022-08-03T02:42:13;100196.59;;;20.91
24740;BMP280;45234;48.148;17.128;2022-08-03T02:44:41;100197.91;;;20.93
24740;BMP280;45234;48.148;17.128;2022-08-03T02:47:13;100192.63;;;20.93
24740;BMP280;45234;48.148;17.128;2022-08-03T02:49:42;100192.09;;;20.96
24740;BMP280;45234;48.148;17.128;2022-08-03T02:52:20;100198.94;;;20.97
24740;BMP280;45234;48.148;17.128;2022-08-03T02:54:52;100191.81;;;20.98
24740;BMP280;45234;48.148;17.128;2022-08-03T02:57:21;100192.09;;;20.96
24740;BMP280;45234;48.148;17.128;2022-08-03T02:59:51;100199.47;;;20.94
24740;BMP280;45234;48.148;17.128;2022-08-03T03:02:19;100195.50;;;20.92
24740;BMP280;45234;48.148;17.128;2022-08-03T03:05:11;100206.56;;;20.89
24740;BMP280;45234;48.148;17.128;2022-08-03T03:07:59;100199.69;;;20.88
24740;BMP280;45234;48.148;17.128;2022-08-03T03:10:27;100199.19;;;20.86
24740;BMP280;45234;48.148;17.128;2022-08-03T03:12:56;100198.41;;;20.85
24740;BMP280;45234;48.148;17.128;2022-08-03T03:15:24;100198.66;;;20.83
24740;BMP280;45234;48.148;17.128;2022-08-03T03:17:52;100212.09;;;20.82
24740;BMP280;45234;48.148;17.128;2022-08-03T03:20:22;100212.09;;;20.82
24740;BMP280;45234;48.148;17.128;2022-08-03T03:22:59;100211.56;;;20.80
24740;BMP280;45234;48.148;17.128;2022-08-03T03:25:30;100214.69;;;20.77
24740;BMP280;45234;48.148;17.128;2022-08-03T03:28:00;100213.13;;;20.76
24740;BMP280;45234;48.148;17.128;2022-08-03T03:30:29;100214.69;;;20.72
24740;BMP280;45234;48.148;17.128;2022-08-03T03:32:56;100217.88;;;20.69
24740;BMP280;45234;48.148;17.128;2022-08-03T03:35:27;100217.88;;;20.69
24740;BMP280;45234;48.148;17.128;2022-08-03T03:37:54;100214.66;;;20.67
24740;BMP280;45234;48.148;17.128;2022-08-03T03:40:22;100215.44;;;20.67
24740;BMP280;45234;48.148;17.128;2022-08-03T03:42:51;100214.66;;;20.67
24740;BMP280;45234;48.148;17.128;2022-08-03T03:45:18;100219.94;;;20.67
24740;BMP280;45234;48.148;17.128;2022-08-03T03:47:46;100215.19;;;20.64
24740;BMP280;45234;48.148;17.128;2022-08-03T03:50:13;100213.59;;;20.63
24740;BMP280;45234;48.148;17.128;2022-08-03T03:52:41;100217.03;;;20.63
24740;BMP280;45234;48.148;17.128;2022-08-03T03:55:08;100213.59;;;20.63
24740;BMP280;45234;48.148;17.128;2022-08-03T03:57:37;100218.09;;;20.62
24740;BMP280;45234;48.148;17.128;2022-08-03T04:00:04;100208.34;;;20.63
24740;BMP280;45234;48.148;17.128;2022-08-03T04:02:34;100217.31;;;20.62
24740;BMP280;45234;48.148;17.128;2022-08-03T04:05:04;100214.69;;;20.62
24740;BMP280;45234;48.148;17.128;2022-08-03T04:10:39;100222.56;;;20.67
24740;BMP280;45234;48.148;17.128;2022-08-03T04:13:27;100230.00;;;20.70
24740;BMP280;45234;48.148;17.128;2022-08-03T04:15:56;100230.50;;;20.72
24740;BMP280;45234;48.148;17.128;2022-08-03T04:18:26;100234.19;;;20.76
24740;BMP280;45234;48.148;17.128;2022-08-03T04:20:56;100236.34;;;20.79
24740;BMP280;45234;48.148;17.128;2022-08-03T04:23:26;100233.19;;;20.82
24740;BMP280;45234;48.148;17.128;2022-08-03T04:25:54;100243.72;;;20.82
24740;BMP280;45234;48.148;17.128;2022-08-03T04:28:23;100245.81;;;20.85
24740;BMP280;45234;48.148;17.128;2022-08-03T04:30:57;100245.88;;;20.90
24740;BMP280;45234;48.148;17.128;2022-08-03T04:33:26;100250.06;;;20.96
24740;BMP280;45234;48.148;17.128;2022-08-03T04:36:00;100255.91;;;21.03
24740;BMP280;45234;48.148;17.128;2022-08-03T04:38:35;100254.56;;;21.06
24740;BMP280;45234;48.148;17.128;2022-08-03T04:41:04;100245.88;;;21.10
24740;BMP280;45234;48.148;17.128;2022-08-03T04:43:33;100251.44;;;21.14
24740;BMP280;45234;48.148;17.128;2022-08-03T04:46:02;100261.69;;;21.20
24740;BMP280;45234;48.148;17.128;2022-08-03T04:48:30;100262.00;;;21.24
24740;BMP280;45234;48.148;17.128;2022-08-03T04:50:58;100258.56;;;21.29
24740;BMP280;45234;48.148;17.128;2022-08-03T04:53:26;100257.00;;;21.33
24740;BMP280;45234;48.148;17.128;2022-08-03T04:55:53;100257.00;;;21.38
24740;BMP280;45234;48.148;17.128;2022-08-03T04:58:21;100266.53;;;21.44
24740;BMP280;45234;48.148;17.128;2022-08-03T05:00:48;100266.50;;;21.49
24740;BMP280;45234;48.148;17.128;2022-08-03T05:03:18;100270.47;;;21.51
24740;BMP280;45234;48.148;17.128;2022-08-03T05:05:51;100271.25;;;21.57
24740;BMP280;45234;48.148;17.128;2022-08-03T05:08:28;100273.38;;;21.65
24740;BMP280;45234;48.148;17.128;2022-08-03T05:10:57;100268.09;;;21.70
24740;BMP280;45234;48.148;17.128;2022-08-03T05:13:26;100275.47;;;21.78
24740;BMP280;45234;48.148;17.128;2022-08-03T05:15:53;100276.00;;;21.85
24740;BMP280;45234;48.148;17.128;2022-08-03T05:18:21;100283.91;;;21.90
24740;BMP280;45234;48.148;17.128;2022-08-03T05:20:48;100276.50;;;22.02
24740;BMP280;45234;48.148;17.128;2022-08-03T05:23:15;100273.00;;;22.32
24740;BMP280;45234;48.148;17.128;2022-08-03T05:27:35;100284.78;;;23.14
24740;BMP280;45234;48.148;17.128;2022-08-03T05:30:03;100281.16;;;23.97
24740;BMP280;45234;48.148;17.128;2022-08-03T05:32:50;100283.72;;;24.87
24740;BMP280;45234;48.148;17.128;2022-08-03T05:35:18;100289.38;;;25.31
24740;BMP280;45234;48.148;17.128;2022-08-03T05:38:06;100289.50;;;26.41
24740;BMP280;45234;48.148;17.128;2022-08-03T05:40:36;100290.31;;;28.26
24740;BMP280;45234;48.148;17.128;2022-08-03T05:43:05;100300.88;;;29.88
24740;BMP280;45234;48.148;17.128;2022-08-03T05:45:33;100293.81;;;30.54
24740;BMP280;45234;48.148;17.128;2022-08-03T05:48:03;100295.81;;;31.14
24740;BMP280;45234;48.148;17.128;2022-08-03T05:50:30;100296.38;;;32.20
24740;BMP280;45234;48.148;17.128;2022-08-03T05:52:57;100298.63;;;33.40
24740;BMP280;45234;48.148;17.128;2022-08-03T05:55:26;100307.59;;;34.21
24740;BMP280;45234;48.148;17.128;2022-08-03T05:57:53;100319.31;;;34.96
24740;BMP280;45234;48.148;17.128;2022-08-03T06:00:23;100322.72;;;35.46
24740;BMP280;45234;48.148;17.128;2022-08-03T06:02:51;100316.63;;;35.82
24740;BMP280;45234;48.148;17.128;2022-08-03T06:05:18;100320.53;;;35.85
24740;BMP280;45234;48.148;17.128;2022-08-03T06:07:45;100319.31;;;36.16
24740;BMP280;45234;48.148;17.128;2022-08-03T06:10:13;100321.78;;;36.75
24740;BMP280;45234;48.148;17.128;2022-08-03T06:13:01;100321.31;;;36.66
24740;BMP280;45234;48.148;17.128;2022-08-03T06:15:33;100317.69;;;36.99
24740;BMP280;45234;48.148;17.128;2022-08-03T06:18:02;100323.72;;;37.47
24740;BMP280;45234;48.148;17.128;2022-08-03T06:20:32;100324.09;;;37.38
24740;BMP280;45234;48.148;17.128;2022-08-03T06:23:01;100317.38;;;37.11
24740;BMP280;45234;48.148;17.128;2022-08-03T06:25:28;100318.56;;;36.63
24740;BMP280;45234;48.148;17.128;2022-08-03T06:27:56;100320.06;;;37.14
24740;BMP280;45234;48.148;17.128;2022-08-03T06:30:27;100326.53;;;37.64
24740;BMP280;45234;48.148;17.128;2022-08-03T06:32:58;100324.94;;;36.37
24740;BMP280;45234;48.148;17.128;2022-08-03T06:35:26;100323.22;;;36.22
24740;BMP280;45234;48.148;17.128;2022-08-03T06:37:54;100321.41;;;35.96
24740;BMP280;45234;48.148;17.128;2022-08-03T06:40:22;100327.03;;;36.17
24740;BMP280;45234;48.148;17.128;2022-08-03T06:42:58;100327.91;;;36.72
24740;BMP280;45234;48.148;17.128;2022-08-03T06:45:25;100334.84;;;36.73
24740;BMP280;45234;48.148;17.128;2022-08-03T06:48:09;100338.22;;;36.59
24740;BMP280;45234;48.148;17.128;2022-08-03T06:50:39;100334.59;;;36.85
24740;BMP280;45234;48.148;17.128;2022-08-03T06:53:10;100328.88;;;36.10
24740;BMP280;45234;48.148;17.128;2022-08-03T06:55:48;100341.41;;;35.91
24740;BMP280;45234;48.148;17.128;2022-08-03T06:58:20;100346.63;;;35.77
24740;BMP280;45234;48.148;17.128;2022-08-03T07:00:48;100336.66;;;35.81
24740;BMP280;45234;48.148;17.128;2022-08-03T07:03:15;100336.50;;;35.15
24740;BMP280;45234;48.148;17.128;2022-08-03T07:05:42;100341.63;;;35.23
24740;BMP280;45234;48.148;17.128;2022-08-03T07:08:09;100340.34;;;35.14
24740;BMP280;45234;48.148;17.128;2022-08-03T07:10:36;100334.94;;;35.14
24740;BMP280;45234;48.148;17.128;2022-08-03T07:13:04;100347.63;;;34.87
24740;BMP280;45234;48.148;17.128;2022-08-03T07:15:31;100338.75;;;34.41
24740;BMP280;45234;48.148;17.128;2022-08-03T07:18:18;100334.31;;;34.52
24740;BMP280;45234;48.148;17.128;2022-08-03T07:20:56;100335.41;;;34.93
24740;BMP280;45234;48.148;17.128;2022-08-03T07:23:24;100338.59;;;34.53
24740;BMP280;45234;48.148;17.128;2022-08-03T07:25:56;100341.22;;;34.72
24740;BMP280;45234;48.148;17.128;2022-08-03T07:28:23;100336.34;;;34.59
24740;BMP280;45234;48.148;17.128;2022-08-03T07:30:51;100340.00;;;34.92
24740;BMP280;45234;48.148;17.128;2022-08-03T07:33:20;100334.94;;;35.14
24740;BMP280;45234;48.148;17.128;2022-08-03T07:35:47;100341.19;;;35.18
24740;BMP280;45234;48.148;17.128;2022-08-03T07:38:16;100340.34;;;35.14
24740;BMP280;45234;48.148;17.128;2022-08-03T07:40:46;100333.63;;;35.27
24740;BMP280;45234;48.148;17.128;2022-08-03T07:43:13;100324.91;;;35.11
24740;BMP280;45234;48.148;17.128;2022-08-03T07:45:40;100329.84;;;34.82
24740;BMP280;45234;48.148;17.128;2022-08-03T07:48:07;100325.22;;;34.60
24740;BMP280;45234;48.148;17.128;2022-08-03T07:50:38;100328.34;;;34.01
24740;BMP280;45234;48.148;17.128;2022-08-03T07:53:05;100328.38;;;33.66
24740;BMP280;45234;48.148;17.128;2022-08-03T07:55:32;100326.22;;;33.21
24740;BMP280;45234;48.148;17.128;2022-08-03T07:58:00;100328.44;;;33.35
24740;BMP280;45234;48.148;17.128;2022-08-03T08:00:28;100325.72;;;33.51
24740;BMP280;45234;48.148;17.128;2022-08-03T08:02:55;100323.25;;;33.42
24740;BMP280;45234;48.148;17.128;2022-08-03T08:05:22;100324.72;;;33.74
24740;BMP280;45234;48.148;17.128;2022-08-03T08:07:52;100331.38;;;34.38
24740;BMP280;45234;48.148;17.128;2022-08-03T08:10:19;100322.06;;;34.77
24740;BMP280;45234;48.148;17.128;2022-08-03T08:12:47;100324.56;;;34.89
24740;BMP280;45234;48.148;17.128;2022-08-03T08:15:14;100333.16;;;35.21
24740;BMP280;45234;48.148;17.128;2022-08-03T08:17:46;100322.53;;;35.32
24740;BMP280;45234;48.148;17.128;2022-08-03T08:20:15;100336.34;;;35.27
24740;BMP280;45234;48.148;17.128;2022-08-03T08:22:55;100335.34;;;35.16
24740;BMP280;45234;48.148;17.128;2022-08-03T08:25:24;100331.56;;;34.94
24740;BMP280;45234;48.148;17.128;2022-08-03T08:27:51;100334.66;;;34.73
24740;BMP280;45234;48.148;17.128;2022-08-03T08:30:40;100336.94;;;34.71
24740;BMP280;45234;48.148;17.128;2022-08-03T08:33:07;100338.69;;;34.60
24740;BMP280;45234;48.148;17.128;2022-08-03T08:35:50;100338.09;;;34.48
24740;BMP280;45234;48.148;17.128;2022-08-03T08:38:19;100324.56;;;34.44
24740;BMP280;45234;48.148;17.128;2022-08-03T08:40:47;100331.38;;;34.38
24740;BMP280;45234;48.148;17.128;2022-08-03T08:43:15;100333.78;;;34.24
24740;BMP280;45234;48.148;17.128;2022-08-03T08:45:42;100335.28;;;34.21
24740;BMP280;45234;48.148;17.128;2022-08-03T08:48:09;100330.00;;;34.06
24740;BMP280;45234;48.148;17.128;2022-08-03T08:50:40;100330.97;;;34.17
24740;BMP280;45234;48.148;17.128;2022-08-03T08:53:07;100325.13;;;34.53
24740;BMP280;45234;48.148;17.128;2022-08-03T08:55:47;100336.94;;;34.49
24740;BMP280;45234;48.148;17.128;2022-08-03T08:58:34;100331.38;;;34.00
24740;BMP280;45234;48.148;17.128;2022-08-03T09:01:03;100329.13;;;34.02
24740;BMP280;45234;48.148;17.128;2022-08-03T09:03:31;100329.25;;;34.09
24740;BMP280;45234;48.148;17.128;2022-08-03T09:05:59;100325.22;;;33.99
24740;BMP280;45234;48.148;17.128;2022-08-03T09:08:30;100327.88;;;33.96
24740;BMP280;45234;48.148;17.128;2022-08-03T09:10:58;100331.28;;;33.77
24740;BMP280;45234;48.148;17.128;2022-08-03T09:13:26;100318.03;;;33.33
24740;BMP280;45234;48.148;17.128;2022-08-03T09:16:15;100324.63;;;33.36
24740;BMP280;45234;48.148;17.128;2022-08-03T09:18:44;100322.88;;;33.59
24740;BMP280;45234;48.148;17.128;2022-08-03T09:24:01;100317.34;;;33.52
24740;BMP280;45234;48.148;17.128;2022-08-03T09:26:32;100318.75;;;33.15
24740;BMP280;45234;48.148;17.128;2022-08-03T09:29:02;100316.50;;;32.85
24740;BMP280;45234;48.148;17.128;2022-08-03T09:31:39;100312.03;;;33.05
24740;BMP280;45234;48.148;17.128;2022-08-03T09:34:10;100305.31;;;33.30
24740;BMP280;45234;48.148;17.128;2022-08-03T09:36:39;100309.31;;;33.21
24740;BMP280;45234;48.148;17.128;2022-08-03T09:39:09;100306.38;;;33.10
24740;BMP280;45234;48.148;17.128;2022-08-03T09:41:42;100298.03;;;33.15
24740;BMP280;45234;48.148;17.128;2022-08-03T09:44:11;100307.69;;;33.01
24740;BMP280;45234;48.148;17.128;2022-08-03T09:46:54;100288.69;;;32.78
24740;BMP280;45234;48.148;17.128;2022-08-03T09:49:24;100293.50;;;32.57
24740;BMP280;45234;48.148;17.128;2022-08-03T09:51:52;100290.34;;;32.39
24740;BMP280;45234;48.148;17.128;2022-08-03T09:54:40;100279.09;;;32.33
24740;BMP280;45234;48.148;17.128;2022-08-03T09:57:18;100280.88;;;32.14
24740;BMP280;45234;48.148;17.128;2022-08-03T09:59:47;100278.63;;;32.16
24740;BMP280;45234;48.148;17.128;2022-08-03T10:02:22;100272.06;;;32.29
24740;BMP280;45234;48.148;17.128;2022-08-03T10:04:52;100275.28;;;32.07
24740;BMP280;45234;48.148;17.128;2022-08-03T10:07:23;100270.84;;;32.11
24740;BMP280;45234;48.148;17.128;2022-08-03T10:09:54;100273.75;;;32.06
24740;BMP280;45234;48.148;17.128;2022-08-03T10:12:21;100270.13;;;31.74
24740;BMP280;45234;48.148;17.128;2022-08-03T10:14:49;100269.16;;;31.42
24740;BMP280;45234;48.148;17.128;2022-08-03T10:17:18;100264.50;;;31.15
24740;BMP280;45234;48.148;17.128;2022-08-03T10:19:46;100259.88;;;31.03
24740;BMP280;45234;48.148;17.128;2022-08-03T10:22:22;100257.56;;;31.02
24740;BMP280;45234;48.148;17.128;2022-08-03T10:24:56;100252.50;;;30.76
24740;BMP280;45234;48.148;17.128;2022-08-03T10:27:25;100249.69;;;30.72
24740;BMP280;45234;48.148;17.128;2022-08-03T10:29:56;100253.50;;;30.83
24740;BMP280;45234;48.148;17.128;2022-08-03T10:34:52;100253.97;;;30.85
24740;BMP280;45234;48.148;17.128;2022-08-03T10:37:27;100253.75;;;31.03
24740;BMP280;45234;48.148;17.128;2022-08-03T10:39:59;100255.19;;;30.76
24740;BMP280;45234;48.148;17.128;2022-08-03T10:42:27;100255.22;;;30.55
24740;BMP280;45234;48.148;17.128;2022-08-03T10:45:06;100254.78;;;30.53
24740;BMP280;45234;48.148;17.128;2022-08-03T10:47:36;100259.25;;;30.61
24740;BMP280;45234;48.148;17.128;2022-08-03T10:50:04;100256.28;;;30.63
24740;BMP280;45234;48.148;17.128;2022-08-03T10:52:31;100247.09;;;30.52
24740;BMP280;45234;48.148;17.128;2022-08-03T10:58:45;100243.44;;;30.68
24740;BMP280;45234;48.148;17.128;2022-08-03T11:04:26;100238.94;;;30.48
24740;BMP280;45234;48.148;17.128;2022-08-03T11:09:48;100228.38;;;30.52
24740;BMP280;45234;48.148;17.128;2022-08-03T11:12:34;100220.34;;;30.64
24740;BMP280;45234;48.148;17.128;2022-08-03T11:15:06;100218.50;;;30.76
24740;BMP280;45234;48.148;17.128;2022-08-03T11:17:35;100213.38;;;30.83
24740;BMP280;45234;48.148;17.128;2022-08-03T11:23:07;100212.41;;;30.55
24740;BMP280;45234;48.148;17.128;2022-08-03T11:28:24;100209.94;;;30.50
24740;BMP280;45234;48.148;17.128;2022-08-03T11:30:52;100208.38;;;30.49
24740;BMP280;45234;48.148;17.128;2022-08-03T11:33:28;100212.19;;;30.60
24740;BMP280;45234;48.148;17.128;2022-08-03T11:35:57;100205.28;;;30.59
24740;BMP280;45234;48.148;17.128;2022-08-03T11:38:25;100206.97;;;30.52
24740;BMP280;45234;48.148;17.128;2022-08-03T11:40:52;100196.78;;;30.45
24740;BMP280;45234;48.148;17.128;2022-08-03T11:45:58;100195.22;;;30.44
24740;BMP280;45234;48.148;17.128;2022-08-03T11:48:32;100200.31;;;30.37
24740;BMP280;45234;48.148;17.128;2022-08-03T11:51:00;100196.94;;;30.28
24740;BMP280;45234;48.148;17.128;2022-08-03T11:53:28;100192.00;;;30.18
24740;BMP280;45234;48.148;17.128;2022-08-03T11:55:59;100195.59;;;30.22
24740;BMP280;45234;48.148;17.128;2022-08-03T11:58:27;100185.53;;;30.19
24740;BMP280;45234;48.148;17.128;2022-08-03T12:01:15;100173.09;;;30.23
24740;BMP280;45234;48.148;17.128;2022-08-03T12:03:49;100184.94;;;30.34
24740;BMP280;45234;48.148;17.128;2022-08-03T12:06:17;100175.16;;;30.38
24740;BMP280;45234;48.148;17.128;2022-08-03T12:08:44;100167.56;;;30.40
24740;BMP280;45234;48.148;17.128;2022-08-03T12:11:13;100174.72;;;30.48
24740;BMP280;45234;48.148;17.128;2022-08-03T12:13:45;100178.31;;;30.52
24740;BMP280;45234;48.148;17.128;2022-08-03T12:16:33;100180.06;;;30.48
24740;BMP280;45234;48.148;17.128;2022-08-03T12:19:01;100174.47;;;30.41
24740;BMP280;45234;48.148;17.128;2022-08-03T12:21:28;100166.41;;;30.29
24740;BMP280;45234;48.148;17.128;2022-08-03T12:23:56;100163.28;;;30.27
24740;BMP280;45234;48.148;17.128;2022-08-03T12:26:27;100162.88;;;30.37
24740;BMP280;45234;48.148;17.128;2022-08-03T12:28:54;100159.88;;;30.51
24740;BMP280;45234;48.148;17.128;2022-08-03T12:31:21;100157.78;;;30.56
24740;BMP280;45234;48.148;17.128;2022-08-03T12:34:01;100157.69;;;30.65
24740;BMP280;45234;48.148;17.128;2022-08-03T12:36:30;100157.81;;;30.68
24740;BMP280;45234;48.148;17.128;2022-08-03T12:38:59;100152.78;;;30.67
24740;BMP280;45234;48.148;17.128;2022-08-03T12:41:27;100150.47;;;30.65
24740;BMP280;45234;48.148;17.128;2022-08-03T12:43:56;100144.06;;;30.70
24740;BMP280;45234;48.148;17.128;2022-08-03T12:46:28;100133.97;;;30.63
24740;BMP280;45234;48.148;17.128;2022-08-03T12:49:02;100138.88;;;30.73
24740;BMP280;45234;48.148;17.128;2022-08-03T12:51:37;100142.19;;;30.82
24740;BMP280;45234;48.148;17.128;2022-08-03T12:54:25;100142.19;;;30.82
24740;BMP280;45234;48.148;17.128;2022-08-03T12:56:55;100143.78;;;30.83
24740;BMP280;45234;48.148;17.128;2022-08-03T12:59:26;100149.59;;;30.85
24740;BMP280;45234;48.148;17.128;2022-08-03T13:02:01;100145.34;;;30.84
24740;BMP280;45234;48.148;17.128;2022-08-03T13:04:32;100145.44;;;30.88
24740;BMP280;45234;48.148;17.128;2022-08-03T13:07:03;100135.28;;;30.94
24740;BMP280;45234;48.148;17.128;2022-08-03T13:09:41;100135.06;;;30.99
24740;BMP280;45234;48.148;17.128;2022-08-03T13:12:10;100130.38;;;31.08
24740;BMP280;45234;48.148;17.128;2022-08-03T13:14:37;100140.06;;;31.12
24740;BMP280;45234;48.148;17.128;2022-08-03T13:17:05;100127.00;;;31.11
24740;BMP280;45234;48.148;17.128;2022-08-03T13:19:32;100129.56;;;31.19
24740;BMP280;45234;48.148;17.128;2022-08-03T13:22:00;100121.41;;;31.28
24740;BMP280;45234;48.148;17.128;2022-08-03T13:24:31;100129.41;;;31.40
24740;BMP280;45234;48.148;17.128;2022-08-03T13:27:02;100134.09;;;31.43
24740;BMP280;45234;48.148;17.128;2022-08-03T13:29:53;100124.91;;;31.44
24740;BMP280;45234;48.148;17.128;2022-08-03T13:32:23;100122.91;;;31.41
24740;BMP280;45234;48.148;17.128;2022-08-03T13:34:52;100120.69;;;31.43
24740;BMP280;45234;48.148;17.128;2022-08-03T13:37:20;100120.69;;;31.43
24740;BMP280;45234;48.148;17.128;2022-08-03T13:39:49;100118.91;;;31.47
24740;BMP280;45234;48.148;17.128;2022-08-03T13:42:26;100121.00;;;31.54
24740;BMP280;45234;48.148;17.128;2022-08-03T13:44:55;100120.34;;;31.45
24740;BMP280;45234;48.148;17.128;2022-08-03T13:47:24;100116.44;;;31.42
24740;BMP280;45234;48.148;17.128;2022-08-03T13:49:52;100100.75;;;31.28
24740;BMP280;45234;48.148;17.128;2022-08-03T13:52:31;100111.56;;;31.32
24740;BMP280;45234;48.148;17.128;2022-08-03T13:54:58;100112.94;;;31.26
24740;BMP280;45234;48.148;17.128;2022-08-03T13:57:26;100112.63;;;31.15
24740;BMP280;45234;48.148;17.128;2022-08-03T14:00:14;100103.59;;;31.08
24740;BMP280;45234;48.148;17.128;2022-08-03T14:02:58;100095.75;;;31.03
24740;BMP280;45234;48.148;17.128;2022-08-03T14:05:39;100095.75;;;31.03
24740;BMP280;45234;48.148;17.128;2022-08-03T14:08:06;100105.16;;;31.09
24740;BMP280;45234;48.148;17.128;2022-08-03T14:10:37;100097.81;;;30.94
24740;BMP280;45234;48.148;17.128;2022-08-03T14:13:05;100097.16;;;30.84
24740;BMP280;45234;48.148;17.128;2022-08-03T14:15:32;100092.44;;;30.81
24740;BMP280;45234;48.148;17.128;2022-08-03T14:18:05;100090.78;;;30.89
24740;BMP280;45234;48.148;17.128;2022-08-03T14:20:38;100085.00;;;30.87
24740;BMP280;45234;48.148;17.128;2022-08-03T14:23:20;100090.69;;;30.85
24740;BMP280;45234;48.148;17.128;2022-08-03T14:25:47;100083.53;;;30.89
24740;BMP280;45234;48.148;17.128;2022-08-03T14:28:19;100087.78;;;30.90
24740;BMP280;45234;48.148;17.128;2022-08-03T14:30:49;100080.31;;;30.96
24740;BMP280;45234;48.148;17.128;2022-08-03T14:33:17;100082.72;;;31.01
24740;BMP280;45234;48.148;17.128;2022-08-03T14:35:44;100077.00;;;31.03
24740;BMP280;45234;48.148;17.128;2022-08-03T14:38:11;100081.03;;;31.09
24740;BMP280;45234;48.148;17.128;2022-08-03T14:40:39;100072.88;;;31.17
24740;BMP280;45234;48.148;17.128;2022-08-03T14:43:06;100079.88;;;31.22
24740;BMP280;45234;48.148;17.128;2022-08-03T14:45:33;100077.19;;;31.22
24740;BMP280;45234;48.148;17.128;2022-08-03T14:48:01;100081.44;;;31.23